sensor_id;sensor_type;location;lat;lon;timestamp;pressure;altitude;pressure_sealevel;temperature;humidity
11621;BME280;5866;49.094;11.900;2023-04-09T00:01:07;96838.69;;;7.90;100.00
11621;BME280;5866;49.094;11.900;2023-04-09T00:03:35;96843.81;;;7.62;100.00
11621;BME280;5866;49.094;11.900;2023-04-09T00:06:04;96847.16;;;7.11;100.00
11621;BME280;5866;49.094;11.900;2023-04-09T00:08:33;96846.84;;;7.26;100.00
11621;BME280;5866;49.094;11.900;2023-04-09T00:11:00;96840.91;;;7.12;100.00
11621;BME280;5866;49.094;11.900;2023-04-09T00:13:28;96845.78;;;6.96;100.00
11621;BME280;5866;49.094;11.900;2023-04-09T00:15:58;96848.22;;;6.66;100.00
11621;BME280;5866;49.094;11.900;2023-04-09T00:18:26;96846.97;;;7.03;100.00
11621;BME280;5866;49.094;11.900;2023-04-09T00:20:53;96846.47;;;6.98;100.00
11621;BME280;5866;49.094;11.900;2023-04-09T00:23:21;96847.25;;;7.42;100.00
11621;BME280;5866;49.094;11.900;2023-04-09T00:25:50;96850.34;;;7.47;100.00
11621;BME280;5866;49.094;11.900;2023-04-09T00:28:17;96839.56;;;7.50;100.00
11621;BME280;5866;49.094;11.900;2023-04-09T00:30:45;96836.78;;;7.72;100.00
11621;BME280;5866;49.094;11.900;2023-04-09T00:33:12;96845.69;;;8.01;100.00
11621;BME280;5866;49.094;11.900;2023-04-09T00:35:40;96842.56;;;8.37;100.00
11621;BME280;5866;49.094;11.900;2023-04-09T00:38:07;96842.03;;;8.43;100.00
11621;BME280;5866;49.094;11.900;2023-04-09T00:40:35;96837.16;;;8.48;100.00
11621;BME280;5866;49.094;11.900;2023-04-09T00:43:04;96840.09;;;8.45;100.00
11621;BME280;5866;49.094;11.900;2023-04-09T00:45:32;96839.91;;;8.37;100.00
11621;BME280;5866;49.094;11.900;2023-04-09T00:47:59;96845.41;;;8.25;100.00
11621;BME280;5866;49.094;11.900;2023-04-09T00:50:27;96845.91;;;7.68;100.00
11621;BME280;5866;49.094;11.900;2023-04-09T00:52:55;96854.94;;;7.45;100.00
11621;BME280;5866;49.094;11.900;2023-04-09T00:55:24;96855.88;;;6.80;100.00
11621;BME280;5866;49.094;11.900;2023-04-09T00:57:51;96853.19;;;6.91;100.00
11621;BME280;5866;49.094;11.900;2023-04-09T01:00:20;96853.50;;;6.66;100.00
11621;BME280;5866;49.094;11.900;2023-04-09T01:02:48;96847.31;;;6.99;100.00
11621;BME280;5866;49.094;11.900;2023-04-09T01:05:17;96844.69;;;6.99;100.00
11621;BME280;5866;49.094;11.900;2023-04-09T01:07:53;96844.41;;;7.34;100.00
11621;BME280;5866;49.094;11.900;2023-04-09T01:10:27;96843.47;;;7.55;100.00
11621;BME280;5866;49.094;11.900;2023-04-09T01:13:05;96841.63;;;7.14;100.00
11621;BME280;5866;49.094;11.900;2023-04-09T01:15:37;96841.81;;;6.37;100.00
11621;BME280;5866;49.094;11.900;2023-04-09T01:18:09;96848.09;;;5.68;100.00
11621;BME280;5866;49.094;11.900;2023-04-09T01:20:39;96848.72;;;5.72;100.00
11621;BME280;5866;49.094;11.900;2023-04-09T01:23:15;96838.78;;;5.75;100.00
11621;BME280;5866;49.094;11.900;2023-04-09T01:25:52;96834.13;;;5.79;100.00
11621;BME280;5866;49.094;11.900;2023-04-09T01:28:30;96835.66;;;5.70;100.00
11621;BME280;5866;49.094;11.900;2023-04-09T01:31:01;96825.78;;;6.18;100.00
11621;BME280;5866;49.094;11.900;2023-04-09T01:33:31;96829.97;;;6.20;100.00
11621;BME280;5866;49.094;11.900;2023-04-09T01:36:00;96833.91;;;6.48;100.00
11621;BME280;5866;49.094;11.900;2023-04-09T01:38:28;96829.03;;;6.86;100.00
11621;BME280;5866;49.094;11.900;2023-04-09T01:40:56;96832.72;;;6.95;100.00
11621;BME280;5866;49.094;11.900;2023-04-09T01:43:25;96834.41;;;6.20;100.00
11621;BME280;5866;49.094;11.900;2023-04-09T01:45:55;96834.41;;;5.98;100.00
11621;BME280;5866;49.094;11.900;2023-04-09T01:48:24;96838.94;;;6.29;100.00
11621;BME280;5866;49.094;11.900;2023-04-09T01:50:52;96826.75;;;6.06;100.00
11621;BME280;5866;49.094;11.900;2023-04-09T01:53:20;96840.41;;;6.11;100.00
11621;BME280;5866;49.094;11.900;2023-04-09T01:55:48;96836.31;;;6.51;100.00
11621;BME280;5866;49.094;11.900;2023-04-09T01:58:15;96837.59;;;6.46;100.00
11621;BME280;5866;49.094;11.900;2023-04-09T02:00:45;96840.84;;;6.16;100.00
11621;BME280;5866;49.094;11.900;2023-04-09T02:03:17;96840.03;;;6.26;100.00
11621;BME280;5866;49.094;11.900;2023-04-09T02:05:50;96843.13;;;6.20;100.00
11621;BME280;5866;49.094;11.900;2023-04-09T02:08:20;96843.38;;;5.95;100.00
11621;BME280;5866;49.094;11.900;2023-04-09T02:10:50;96855.44;;;5.30;100.00
11621;BME280;5866;49.094;11.900;2023-04-09T02:13:21;96860.91;;;4.92;100.00
11621;BME280;5866;49.094;11.900;2023-04-09T02:15:49;96863.94;;;4.14;100.00
11621;BME280;5866;49.094;11.900;2023-04-09T02:18:23;96860.38;;;4.27;100.00
11621;BME280;5866;49.094;11.900;2023-04-09T02:20:52;96859.38;;;4.77;100.00
11621;BME280;5866;49.094;11.900;2023-04-09T02:23:20;96864.59;;;5.24;100.00
11621;BME280;5866;49.094;11.900;2023-04-09T02:25:48;96863.47;;;5.39;100.00
11621;BME280;5866;49.094;11.900;2023-04-09T02:28:15;96859.25;;;5.37;100.00
11621;BME280;5866;49.094;11.900;2023-04-09T02:30:43;96860.69;;;5.41;100.00
11621;BME280;5866;49.094;11.900;2023-04-09T02:33:10;96861.88;;;5.37;100.00
11621;BME280;5866;49.094;11.900;2023-04-09T02:35:39;96861.50;;;5.19;100.00
11621;BME280;5866;49.094;11.900;2023-04-09T02:38:07;96869.66;;;5.27;100.00
11621;BME280;5866;49.094;11.900;2023-04-09T02:40:39;96870.75;;;5.36;100.00
11621;BME280;5866;49.094;11.900;2023-04-09T02:43:07;96865.06;;;5.18;100.00
11621;BME280;5866;49.094;11.900;2023-04-09T02:45:35;96869.53;;;5.05;100.00
11621;BME280;5866;49.094;11.900;2023-04-09T02:48:03;96868.09;;;5.01;100.00
11621;BME280;5866;49.094;11.900;2023-04-09T02:50:31;96868.97;;;4.89;100.00
11621;BME280;5866;49.094;11.900;2023-04-09T02:52:59;96870.81;;;4.76;100.00
11621;BME280;5866;49.094;11.900;2023-04-09T02:55:27;96878.63;;;4.29;100.00
11621;BME280;5866;49.094;11.900;2023-04-09T02:57:55;96874.75;;;4.22;100.00
11621;BME280;5866;49.094;11.900;2023-04-09T03:00:22;96879.94;;;4.47;100.00
11621;BME280;5866;49.094;11.900;2023-04-09T03:02:49;96882.03;;;4.06;100.00
11621;BME280;5866;49.094;11.900;2023-04-09T03:05:17;96876.94;;;4.28;100.00
11621;BME280;5866;49.094;11.900;2023-04-09T03:07:45;96868.94;;;4.42;100.00
11621;BME280;5866;49.094;11.900;2023-04-09T03:10:14;96868.03;;;4.18;100.00
11621;BME280;5866;49.094;11.900;2023-04-09T03:12:41;96869.34;;;4.36;100.00
11621;BME280;5866;49.094;11.900;2023-04-09T03:15:10;96874.88;;;4.08;100.00
11621;BME280;5866;49.094;11.900;2023-04-09T03:17:37;96858.22;;;4.45;100.00
11621;BME280;5866;49.094;11.900;2023-04-09T03:20:06;96864.28;;;3.96;100.00
11621;BME280;5866;49.094;11.900;2023-04-09T03:22:35;96862.50;;;3.59;100.00
11621;BME280;5866;49.094;11.900;2023-04-09T03:25:03;96866.78;;;3.85;100.00
11621;BME280;5866;49.094;11.900;2023-04-09T03:27:32;96862.69;;;3.94;100.00
11621;BME280;5866;49.094;11.900;2023-04-09T03:29:59;96862.22;;;4.38;100.00
11621;BME280;5866;49.094;11.900;2023-04-09T03:32:27;96856.19;;;4.48;100.00
11621;BME280;5866;49.094;11.900;2023-04-09T03:34:55;96856.28;;;4.83;100.00
11621;BME280;5866;49.094;11.900;2023-04-09T03:37:22;96857.63;;;4.65;100.00
11621;BME280;5866;49.094;11.900;2023-04-09T03:39:50;96855.78;;;4.54;100.00
11621;BME280;5866;49.094;11.900;2023-04-09T03:42:17;96857.31;;;4.57;100.00
11621;BME280;5866;49.094;11.900;2023-04-09T03:44:46;96862.97;;;4.63;100.00
11621;BME280;5866;49.094;11.900;2023-04-09T03:47:14;96857.69;;;4.76;100.00
11621;BME280;5866;49.094;11.900;2023-04-09T03:49:41;96864.09;;;4.72;100.00
11621;BME280;5866;49.094;11.900;2023-04-09T03:52:08;96862.44;;;4.35;100.00
11621;BME280;5866;49.094;11.900;2023-04-09T03:54:36;96861.59;;;4.34;100.00
11621;BME280;5866;49.094;11.900;2023-04-09T03:57:03;96861.31;;;4.14;100.00
11621;BME280;5866;49.094;11.900;2023-04-09T03:59:31;96865.25;;;3.95;100.00
11621;BME280;5866;49.094;11.900;2023-04-09T04:02:00;96862.66;;;4.32;100.00
11621;BME280;5866;49.094;11.900;2023-04-09T04:04:28;96858.13;;;4.70;100.00
11621;BME280;5866;49.094;11.900;2023-04-09T04:06:55;96856.50;;;4.80;100.00
11621;BME280;5866;49.094;11.900;2023-04-09T04:09:23;96855.75;;;4.67;100.00
11621;BME280;5866;49.094;11.900;2023-04-09T04:11:50;96857.53;;;4.18;100.00
11621;BME280;5866;49.094;11.900;2023-04-09T04:14:18;96863.75;;;4.53;100.00
11621;BME280;5866;49.094;11.900;2023-04-09T04:16:45;96862.28;;;4.25;100.00
11621;BME280;5866;49.094;11.900;2023-04-09T04:19:14;96873.19;;;3.81;100.00
11621;BME280;5866;49.094;11.900;2023-04-09T04:21:41;96863.94;;;4.14;100.00
11621;BME280;5866;49.094;11.900;2023-04-09T04:24:09;96870.50;;;3.95;100.00
11621;BME280;5866;49.094;11.900;2023-04-09T04:26:38;96869.03;;;3.91;100.00
11621;BME280;5866;49.094;11.900;2023-04-09T04:29:05;96873.84;;;3.97;100.00
11621;BME280;5866;49.094;11.900;2023-04-09T04:31:33;96876.78;;;4.06;100.00
11621;BME280;5866;49.094;11.900;2023-04-09T04:34:00;96878.81;;;4.38;100.00
11621;BME280;5866;49.094;11.900;2023-04-09T04:36:29;96878.13;;;4.11;100.00
11621;BME280;5866;49.094;11.900;2023-04-09T04:38:57;96887.88;;;4.22;100.00
11621;BME280;5866;49.094;11.900;2023-04-09T04:41:24;96879.50;;;4.17;100.00
11621;BME280;5866;49.094;11.900;2023-04-09T04:43:52;96879.09;;;3.97;100.00
11621;BME280;5866;49.094;11.900;2023-04-09T04:46:19;96884.56;;;4.56;100.00
11621;BME280;5866;49.094;11.900;2023-04-09T04:48:47;96877.31;;;4.83;100.00
11621;BME280;5866;49.094;11.900;2023-04-09T04:51:15;96881.81;;;5.28;100.00
11621;BME280;5866;49.094;11.900;2023-04-09T04:53:43;96882.44;;;5.67;100.00
11621;BME280;5866;49.094;11.900;2023-04-09T04:56:12;96887.91;;;5.52;100.00
11621;BME280;5866;49.094;11.900;2023-04-09T04:58:40;96884.13;;;5.68;100.00
11621;BME280;5866;49.094;11.900;2023-04-09T05:01:08;96882.75;;;4.69;100.00
11621;BME280;5866;49.094;11.900;2023-04-09T05:03:36;96883.22;;;4.74;100.00
11621;BME280;5866;49.094;11.900;2023-04-09T05:06:03;96882.59;;;5.07;100.00
11621;BME280;5866;49.094;11.900;2023-04-09T05:08:31;96892.84;;;5.33;100.00
11621;BME280;5866;49.094;11.900;2023-04-09T05:11:00;96884.44;;;5.17;100.00
11621;BME280;5866;49.094;11.900;2023-04-09T05:13:27;96891.50;;;5.28;100.00
11621;BME280;5866;49.094;11.900;2023-04-09T05:15:55;96902.88;;;5.63;100.00
11621;BME280;5866;49.094;11.900;2023-04-09T05:18:22;96891.13;;;6.79;100.00
11621;BME280;5866;49.094;11.900;2023-04-09T05:20:50;96890.59;;;7.39;100.00
11621;BME280;5866;49.094;11.900;2023-04-09T05:23:17;96889.13;;;8.08;100.00
11621;BME280;5866;49.094;11.900;2023-04-09T05:25:47;96878.56;;;8.29;100.00
11621;BME280;5866;49.094;11.900;2023-04-09T05:28:16;96879.13;;;8.12;100.00
11621;BME280;5866;49.094;11.900;2023-04-09T05:30:45;96876.31;;;8.03;100.00
11621;BME280;5866;49.094;11.900;2023-04-09T05:33:12;96879.53;;;8.67;100.00
11621;BME280;5866;49.094;11.900;2023-04-09T05:35:40;96870.84;;;8.96;100.00
11621;BME280;5866;49.094;11.900;2023-04-09T05:38:07;96875.75;;;8.60;100.00
11621;BME280;5866;49.094;11.900;2023-04-09T05:40:35;96877.16;;;8.04;100.00
11621;BME280;5866;49.094;11.900;2023-04-09T05:43:03;96879.47;;;7.97;100.00
11621;BME280;5866;49.094;11.900;2023-04-09T05:45:32;96882.28;;;8.56;100.00
11621;BME280;5866;49.094;11.900;2023-04-09T05:47:59;96875.69;;;8.91;100.00
11621;BME280;5866;49.094;11.900;2023-04-09T05:50:27;96892.59;;;7.88;100.00
11621;BME280;5866;49.094;11.900;2023-04-09T05:52:54;96879.72;;;7.74;100.00
11621;BME280;5866;49.094;11.900;2023-04-09T05:55:22;96883.66;;;8.51;100.00
11621;BME280;5866;49.094;11.900;2023-04-09T05:57:51;96872.69;;;8.55;100.00
11621;BME280;5866;49.094;11.900;2023-04-09T06:00:19;96878.13;;;9.70;96.69
11621;BME280;5866;49.094;11.900;2023-04-09T06:02:48;96874.22;;;9.74;91.57
11621;BME280;5866;49.094;11.900;2023-04-09T06:05:16;96877.94;;;10.00;87.80
11621;BME280;5866;49.094;11.900;2023-04-09T06:07:43;96882.97;;;10.13;87.02
11621;BME280;5866;49.094;11.900;2023-04-09T06:10:11;96871.44;;;10.41;84.56
11621;BME280;5866;49.094;11.900;2023-04-09T06:12:38;96887.28;;;10.14;85.19
11621;BME280;5866;49.094;11.900;2023-04-09T06:15:06;96894.13;;;9.97;86.75
11621;BME280;5866;49.094;11.900;2023-04-09T06:17:34;96896.78;;;10.16;85.39
11621;BME280;5866;49.094;11.900;2023-04-09T06:20:03;96902.94;;;9.50;87.83
11621;BME280;5866;49.094;11.900;2023-04-09T06:22:31;96903.75;;;9.89;92.26
11621;BME280;5866;49.094;11.900;2023-04-09T06:24:58;96888.78;;;11.62;80.53
11621;BME280;5866;49.094;11.900;2023-04-09T06:27:26;96897.97;;;12.54;72.14
11621;BME280;5866;49.094;11.900;2023-04-09T06:29:53;96895.59;;;12.00;68.58
11621;BME280;5866;49.094;11.900;2023-04-09T06:32:21;96902.88;;;11.00;72.41
11621;BME280;5866;49.094;11.900;2023-04-09T06:34:48;96905.03;;;10.60;76.47
11621;BME280;5866;49.094;11.900;2023-04-09T06:37:17;96913.81;;;9.95;81.88
11621;BME280;5866;49.094;11.900;2023-04-09T06:39:45;96920.78;;;10.15;82.33
11621;BME280;5866;49.094;11.900;2023-04-09T06:42:26;96924.41;;;9.66;83.30
11621;BME280;5866;49.094;11.900;2023-04-09T06:44:54;96920.78;;;10.05;81.49
11621;BME280;5866;49.094;11.900;2023-04-09T06:47:21;96922.75;;;8.77;90.38
11621;BME280;5866;49.094;11.900;2023-04-09T06:49:49;96922.56;;;8.39;98.07
11621;BME280;5866;49.094;11.900;2023-04-09T06:52:18;96926.38;;;8.05;100.00
11621;BME280;5866;49.094;11.900;2023-04-09T06:54:45;96936.47;;;8.21;100.00
11621;BME280;5866;49.094;11.900;2023-04-09T06:57:12;96933.81;;;7.59;100.00
11621;BME280;5866;49.094;11.900;2023-04-09T06:59:40;96935.41;;;7.71;100.00
11621;BME280;5866;49.094;11.900;2023-04-09T07:02:07;96941.09;;;7.35;100.00
11621;BME280;5866;49.094;11.900;2023-04-09T07:04:36;96935.47;;;6.74;100.00
11621;BME280;5866;49.094;11.900;2023-04-09T07:07:04;96939.34;;;7.56;100.00
11621;BME280;5866;49.094;11.900;2023-04-09T07:09:32;96938.09;;;8.63;100.00
11621;BME280;5866;49.094;11.900;2023-04-09T07:12:00;96935.50;;;9.03;98.76
11621;BME280;5866;49.094;11.900;2023-04-09T07:14:27;96941.19;;;8.68;99.12
11621;BME280;5866;49.094;11.900;2023-04-09T07:16:55;96939.69;;;8.45;100.00
11621;BME280;5866;49.094;11.900;2023-04-09T07:19:22;96944.78;;;9.46;96.85
11621;BME280;5866;49.094;11.900;2023-04-09T07:21:50;96930.53;;;10.05;86.59
11621;BME280;5866;49.094;11.900;2023-04-09T07:24:17;96941.72;;;9.80;92.79
11621;BME280;5866;49.094;11.900;2023-04-09T07:26:46;96939.47;;;9.85;87.82
11621;BME280;5866;49.094;11.900;2023-04-09T07:29:17;96951.56;;;9.49;89.22
11621;BME280;5866;49.094;11.900;2023-04-09T07:31:45;96949.78;;;10.07;88.73
11621;BME280;5866;49.094;11.900;2023-04-09T07:34:13;96954.13;;;9.50;91.16
11621;BME280;5866;49.094;11.900;2023-04-09T07:36:41;96946.44;;;10.24;92.31
11621;BME280;5866;49.094;11.900;2023-04-09T07:39:08;96942.31;;;11.84;80.58
11621;BME280;5866;49.094;11.900;2023-04-09T07:41:36;96940.41;;;13.89;63.70
11621;BME280;5866;49.094;11.900;2023-04-09T07:44:05;96930.44;;;14.55;56.70
11621;BME280;5866;49.094;11.900;2023-04-09T07:46:32;96928.34;;;15.36;56.00
11621;BME280;5866;49.094;11.900;2023-04-09T07:49:00;96933.16;;;15.49;54.21
11621;BME280;5866;49.094;11.900;2023-04-09T07:51:27;96935.91;;;13.73;57.58
11621;BME280;5866;49.094;11.900;2023-04-09T07:53:55;96934.09;;;12.13;65.41
11621;BME280;5866;49.094;11.900;2023-04-09T07:56:22;96938.06;;;11.02;73.78
11621;BME280;5866;49.094;11.900;2023-04-09T07:58:50;96938.91;;;11.02;73.66
11621;BME280;5866;49.094;11.900;2023-04-09T08:01:19;96933.75;;;10.74;75.11
11621;BME280;5866;49.094;11.900;2023-04-09T08:03:49;96936.41;;;10.18;81.15
11621;BME280;5866;49.094;11.900;2023-04-09T08:06:17;96947.00;;;9.60;85.78
11621;BME280;5866;49.094;11.900;2023-04-09T08:08:45;96947.41;;;9.66;87.40
11621;BME280;5866;49.094;11.900;2023-04-09T08:11:12;96948.66;;;9.52;88.30
11621;BME280;5866;49.094;11.900;2023-04-09T08:13:40;96949.88;;;9.19;88.96
11621;BME280;5866;49.094;11.900;2023-04-09T08:16:07;96951.69;;;8.49;94.40
11621;BME280;5866;49.094;11.900;2023-04-09T08:18:36;96947.00;;;9.89;91.30
11621;BME280;5866;49.094;11.900;2023-04-09T08:21:05;96943.84;;;11.42;79.89
11621;BME280;5866;49.094;11.900;2023-04-09T08:23:32;96941.34;;;11.85;70.13
11621;BME280;5866;49.094;11.900;2023-04-09T08:25:59;96928.91;;;11.41;72.08
11621;BME280;5866;49.094;11.900;2023-04-09T08:28:27;96943.16;;;12.46;69.32
11621;BME280;5866;49.094;11.900;2023-04-09T08:30:55;96933.50;;;12.02;68.08
11621;BME280;5866;49.094;11.900;2023-04-09T08:33:22;96932.66;;;12.19;66.12
11621;BME280;5866;49.094;11.900;2023-04-09T08:35:51;96941.13;;;11.79;68.59
11621;BME280;5866;49.094;11.900;2023-04-09T08:38:19;96931.56;;;12.55;60.85
11621;BME280;5866;49.094;11.900;2023-04-09T08:40:46;96916.34;;;12.39;64.67
11621;BME280;5866;49.094;11.900;2023-04-09T08:43:15;96927.81;;;12.99;61.70
11621;BME280;5866;49.094;11.900;2023-04-09T08:45:42;96931.34;;;12.23;61.80
11621;BME280;5866;49.094;11.900;2023-04-09T08:48:12;96932.50;;;12.20;66.50
11621;BME280;5866;49.094;11.900;2023-04-09T08:50:40;96937.78;;;13.97;55.76
11621;BME280;5866;49.094;11.900;2023-04-09T08:53:09;96938.34;;;13.42;58.40
11621;BME280;5866;49.094;11.900;2023-04-09T08:55:37;96942.69;;;13.10;58.11
11621;BME280;5866;49.094;11.900;2023-04-09T08:58:04;96951.94;;;13.31;59.46
11621;BME280;5866;49.094;11.900;2023-04-09T09:00:33;96956.84;;;13.10;57.95
11621;BME280;5866;49.094;11.900;2023-04-09T09:03:02;96947.47;;;12.72;60.87
11621;BME280;5866;49.094;11.900;2023-04-09T09:05:38;96955.41;;;11.51;64.06
11621;BME280;5866;49.094;11.900;2023-04-09T09:08:07;96959.41;;;10.83;70.25
11621;BME280;5866;49.094;11.900;2023-04-09T09:10:40;96967.31;;;10.46;71.89
11621;BME280;5866;49.094;11.900;2023-04-09T09:13:20;96963.28;;;10.42;75.67
11621;BME280;5866;49.094;11.900;2023-04-09T09:15:48;96959.56;;;10.25;78.87
11621;BME280;5866;49.094;11.900;2023-04-09T09:18:20;96960.94;;;9.72;82.90
11621;BME280;5866;49.094;11.900;2023-04-09T09:20:48;96966.84;;;9.17;89.02
11621;BME280;5866;49.094;11.900;2023-04-09T09:23:15;96968.28;;;9.30;88.04
11621;BME280;5866;49.094;11.900;2023-04-09T09:25:44;96969.47;;;9.07;88.96
11621;BME280;5866;49.094;11.900;2023-04-09T09:28:11;96963.94;;;9.20;90.29
11621;BME280;5866;49.094;11.900;2023-04-09T09:30:39;96962.59;;;8.95;87.89
11621;BME280;5866;49.094;11.900;2023-04-09T09:33:08;96963.66;;;9.23;87.71
11621;BME280;5866;49.094;11.900;2023-04-09T09:35:48;96969.22;;;9.20;85.49
11621;BME280;5866;49.094;11.900;2023-04-09T09:38:16;96968.25;;;9.21;85.38
11621;BME280;5866;49.094;11.900;2023-04-09T09:40:46;96969.88;;;9.71;84.43
11621;BME280;5866;49.094;11.900;2023-04-09T09:43:14;96969.03;;;9.99;82.97
11621;BME280;5866;49.094;11.900;2023-04-09T09:45:41;96968.16;;;9.51;84.94
11621;BME280;5866;49.094;11.900;2023-04-09T09:48:10;96964.56;;;9.71;84.89
11621;BME280;5866;49.094;11.900;2023-04-09T09:50:39;96951.38;;;10.56;79.15
11621;BME280;5866;49.094;11.900;2023-04-09T09:53:10;96961.38;;;9.77;82.34
11621;BME280;5866;49.094;11.900;2023-04-09T09:55:39;96962.56;;;10.59;76.96
11621;BME280;5866;49.094;11.900;2023-04-09T09:58:15;96956.38;;;10.22;79.93
11621;BME280;5866;49.094;11.900;2023-04-09T10:00:45;96953.03;;;11.30;70.74
11621;BME280;5866;49.094;11.900;2023-04-09T10:03:16;96944.94;;;11.49;66.86
11621;BME280;5866;49.094;11.900;2023-04-09T10:05:47;96949.44;;;10.94;69.64
11621;BME280;5866;49.094;11.900;2023-04-09T10:08:16;96951.38;;;10.65;73.04
11621;BME280;5866;49.094;11.900;2023-04-09T10:10:44;96948.00;;;11.00;72.36
11621;BME280;5866;49.094;11.900;2023-04-09T10:13:19;96948.47;;;12.03;69.52
11621;BME280;5866;49.094;11.900;2023-04-09T10:15:48;96948.44;;;12.71;63.93
11621;BME280;5866;49.094;11.900;2023-04-09T10:18:17;96947.56;;;13.22;60.64
11621;BME280;5866;49.094;11.900;2023-04-09T10:20:48;96946.78;;;12.96;59.21
11621;BME280;5866;49.094;11.900;2023-04-09T10:23:26;96952.84;;;12.55;62.80
11621;BME280;5866;49.094;11.900;2023-04-09T10:25:57;96948.44;;;11.50;73.74
11621;BME280;5866;49.094;11.900;2023-04-09T10:28:26;96945.47;;;11.35;69.73
11621;BME280;5866;49.094;11.900;2023-04-09T10:30:53;96947.72;;;11.75;68.93
11621;BME280;5866;49.094;11.900;2023-04-09T10:33:22;96951.88;;;11.77;63.67
11621;BME280;5866;49.094;11.900;2023-04-09T10:35:52;96945.19;;;11.73;64.02
11621;BME280;5866;49.094;11.900;2023-04-09T10:38:33;96940.63;;;12.01;62.22
11621;BME280;5866;49.094;11.900;2023-04-09T10:41:13;96941.13;;;12.40;61.29
11621;BME280;5866;49.094;11.900;2023-04-09T10:43:42;96940.63;;;12.70;59.99
11621;BME280;5866;49.094;11.900;2023-04-09T10:46:26;96939.63;;;12.63;59.64
11621;BME280;5866;49.094;11.900;2023-04-09T10:49:08;96945.88;;;12.54;59.38
11621;BME280;5866;49.094;11.900;2023-04-09T10:51:37;96949.53;;;12.10;64.74
11621;BME280;5866;49.094;11.900;2023-04-09T10:54:05;96942.16;;;12.04;64.18
11621;BME280;5866;49.094;11.900;2023-04-09T10:56:33;96941.06;;;11.61;64.10
11621;BME280;5866;49.094;11.900;2023-04-09T10:59:02;96932.59;;;12.62;60.05
11621;BME280;5866;49.094;11.900;2023-04-09T11:01:29;96925.56;;;13.12;58.14
11621;BME280;5866;49.094;11.900;2023-04-09T11:04:07;96918.63;;;13.27;57.58
11621;BME280;5866;49.094;11.900;2023-04-09T11:06:38;96920.25;;;14.18;54.30
11621;BME280;5866;49.094;11.900;2023-04-09T11:09:06;96913.41;;;14.72;52.57
11621;BME280;5866;49.094;11.900;2023-04-09T11:11:34;96910.66;;;15.88;52.59
11621;BME280;5866;49.094;11.900;2023-04-09T11:14:03;96912.25;;;17.95;45.60
11621;BME280;5866;49.094;11.900;2023-04-09T11:16:31;96908.53;;;16.96;46.57
11621;BME280;5866;49.094;11.900;2023-04-09T11:18:58;96919.59;;;15.11;49.55
11621;BME280;5866;49.094;11.900;2023-04-09T11:21:26;96917.00;;;14.87;50.89
11621;BME280;5866;49.094;11.900;2023-04-09T11:23:54;96912.25;;;14.26;51.15
11621;BME280;5866;49.094;11.900;2023-04-09T11:26:22;96921.28;;;14.42;52.52
11621;BME280;5866;49.094;11.900;2023-04-09T11:28:54;96919.72;;;15.57;49.65
11621;BME280;5866;49.094;11.900;2023-04-09T11:31:27;96918.69;;;15.88;48.47
11621;BME280;5866;49.094;11.900;2023-04-09T11:33:55;96911.31;;;16.13;48.19
11621;BME280;5866;49.094;11.900;2023-04-09T11:36:22;96916.63;;;16.36;48.38
11621;BME280;5866;49.094;11.900;2023-04-09T11:38:50;96910.53;;;15.59;48.48
11621;BME280;5866;49.094;11.900;2023-04-09T11:41:18;96911.94;;;14.38;52.06
11621;BME280;5866;49.094;11.900;2023-04-09T11:43:45;96905.78;;;14.45;51.94
11621;BME280;5866;49.094;11.900;2023-04-09T11:46:13;96903.59;;;15.03;51.23
11621;BME280;5866;49.094;11.900;2023-04-09T11:48:42;96906.09;;;13.86;53.05
11621;BME280;5866;49.094;11.900;2023-04-09T11:51:10;96911.72;;;13.59;53.56
11621;BME280;5866;49.094;11.900;2023-04-09T11:53:37;96912.94;;;13.96;52.42
11621;BME280;5866;49.094;11.900;2023-04-09T11:56:06;96904.19;;;15.22;50.16
11621;BME280;5866;49.094;11.900;2023-04-09T11:58:34;96896.94;;;14.91;51.07
11621;BME280;5866;49.094;11.900;2023-04-09T12:01:01;96895.91;;;15.39;50.67
11621;BME280;5866;49.094;11.900;2023-04-09T12:03:30;96886.72;;;16.69;47.44
11621;BME280;5866;49.094;11.900;2023-04-09T12:06:01;96888.88;;;17.54;45.43
11621;BME280;5866;49.094;11.900;2023-04-09T12:08:29;96883.41;;;19.01;41.79
11621;BME280;5866;49.094;11.900;2023-04-09T12:11:06;96885.09;;;20.43;39.72
11621;BME280;5866;49.094;11.900;2023-04-09T12:13:34;96877.03;;;19.56;40.02
11621;BME280;5866;49.094;11.900;2023-04-09T12:16:01;96894.56;;;16.34;44.89
11621;BME280;5866;49.094;11.900;2023-04-09T12:18:29;96885.28;;;18.24;42.94
11621;BME280;5866;49.094;11.900;2023-04-09T12:20:57;96889.91;;;19.67;40.41
11621;BME280;5866;49.094;11.900;2023-04-09T12:23:27;96882.25;;;19.64;39.12
11621;BME280;5866;49.094;11.900;2023-04-09T12:25:56;96886.38;;;18.09;40.46
11621;BME280;5866;49.094;11.900;2023-04-09T12:28:27;96878.00;;;17.26;42.49
11621;BME280;5866;49.094;11.900;2023-04-09T12:30:54;96882.41;;;17.48;42.07
11621;BME280;5866;49.094;11.900;2023-04-09T12:33:23;96879.34;;;17.01;43.40
11621;BME280;5866;49.094;11.900;2023-04-09T12:35:51;96875.00;;;16.71;45.00
11621;BME280;5866;49.094;11.900;2023-04-09T12:38:18;96881.38;;;17.13;44.44
11621;BME280;5866;49.094;11.900;2023-04-09T12:40:47;96873.25;;;16.63;44.52
11621;BME280;5866;49.094;11.900;2023-04-09T12:43:14;96875.06;;;17.21;43.54
11621;BME280;5866;49.094;11.900;2023-04-09T12:45:42;96869.19;;;17.82;42.86
11621;BME280;5866;49.094;11.900;2023-04-09T12:48:09;96854.50;;;18.48;42.71
11621;BME280;5866;49.094;11.900;2023-04-09T12:50:37;96869.78;;;17.78;41.98
11621;BME280;5866;49.094;11.900;2023-04-09T12:53:04;96866.38;;;17.90;42.37
11621;BME280;5866;49.094;11.900;2023-04-09T12:55:32;96866.81;;;15.75;44.37
11621;BME280;5866;49.094;11.900;2023-04-09T12:58:01;96859.91;;;14.88;45.96
11621;BME280;5866;49.094;11.900;2023-04-09T13:00:28;96858.03;;;14.50;46.43
11621;BME280;5866;49.094;11.900;2023-04-09T13:02:56;96857.06;;;14.35;48.44
11621;BME280;5866;49.094;11.900;2023-04-09T13:05:24;96853.19;;;14.46;47.95
11621;BME280;5866;49.094;11.900;2023-04-09T13:07:51;96847.56;;;14.32;47.86
11621;BME280;5866;49.094;11.900;2023-04-09T13:10:19;96846.91;;;14.30;47.46